• Join FlightAware (Why Join?)
  • Login
  • US Flag 
09:11PM EST


 

Airport Tracker/Info


-or-


 

Live Flight TrackerFlight Track Log ✈ WEW1540 ✈ 30-Aug-2013 ✈ CYKY - CYYN

Flight Track Log - Related Links

Times and Time Zones

All times are in EDT time to prevent confusion due to time zone crossing. See the WEW1540 flight status page for this flight to view local times or setup timezone preferences in your user account.

Time Position Orientation Groundspeed Altitude Reporting Facility
EDT Latitude Longitude Course Direction KTS MPH feet Rate Location/Type
07:05PM 51.3167 -109.0000 142° Southeast 150 173 8,800  Level Winnipeg Center
07:06PM 51.2833 -108.9333 129° Southeast 150 173 9,000 60 Climbing Winnipeg Center
07:08PM 51.2000 -108.8667 153° Southeast 190 219 9,000  Level Winnipeg Center
07:09PM 51.1097 -108.6736 142° Southeast  Level Estimated
07:09PM 51.1500 -108.8000 140° Southeast 190 219 9,000  Level Winnipeg Center
07:10PM 51.0726 -108.6276 142° Southeast  Level FlightAware Approximate
07:10PM 51.1000 -108.7500 148° Southeast 190 219 9,000  Level Winnipeg Center
07:11PM 51.0833 -108.7000 118° Southeast 190 219 9,000  Level Winnipeg Center
07:12PM 51.0333 -108.6500 148° Southeast 190 219 9,000  Level Winnipeg Center
07:13PM 50.9833 -108.5833 140° Southeast 190 219 9,000  Level Winnipeg Center
07:14PM 50.9333 -108.5500 157° South 190 219 9,000  Level Winnipeg Center
07:15PM 50.9167 -108.5000 118° Southeast 190 219 9,000 420 Level Winnipeg Center
07:16PM 55.0333 -95.7000 57° Northeast 260 299 9,900  Climbing Winnipeg Center
07:17PM 50.8167 -108.3833 246° West 190 219 9,000 -480 Descending Winnipeg Center
07:18PM 50.8000 -108.3333 118° Southeast 190 219 9,000  Level Winnipeg Center
07:19PM 50.7500 -108.2667 140° Southeast 190 219 9,000  Level Winnipeg Center
07:20PM 50.7000 -108.2333 157° South 190 219 9,000  Level Winnipeg Center
07:21PM 50.6500 -108.1667 140° Southeast 190 219 9,000 -60 Level Winnipeg Center
07:22PM 50.6333 -108.1333 128° Southeast 190 219 8,900 -120 Descending Winnipeg Center
07:24PM 50.5758 -108.0533 139° Southeast  Level FlightAware Approximate
07:31PM 50.3209 -107.7273 144° Southeast  Level Estimated
07:32PM 50.2919 -107.6906 144° Southeast  Level Estimated
07:33PM 50.2919 -107.6906 144° Southeast  Level Estimated
07:34PM 50.2919 -107.6906 144° Southeast  Level Estimated
07:35PM 50.2919 -107.6906 144° Southeast  Level Estimated
07:36PM 50.2919 -107.6906 144° Southeast  Level Estimated
07:37PM 50.2919 -107.6906 144° Southeast  Level Estimated
07:38PM 50.2919 -107.6906 144° Southeast  Level Estimated